sensor_id;sensor_type;location;lat;lon;timestamp;pressure;altitude;pressure_sealevel;temperature;humidity
30081;BME280;16902;50.816;12.828;2023-04-26T00:04:21;97640.38;;;2.88;100.00
30081;BME280;16902;50.816;12.828;2023-04-26T00:09:23;97643.34;;;2.93;100.00
30081;BME280;16902;50.816;12.828;2023-04-26T00:14:25;97634.41;;;2.78;100.00
30081;BME280;16902;50.816;12.828;2023-04-26T00:19:27;97642.66;;;2.72;100.00
30081;BME280;16902;50.816;12.828;2023-04-26T00:24:29;97639.13;;;2.73;100.00
30081;BME280;16902;50.816;12.828;2023-04-26T00:29:31;97645.09;;;2.93;100.00
30081;BME280;16902;50.816;12.828;2023-04-26T00:34:34;97652.16;;;3.00;100.00
30081;BME280;16902;50.816;12.828;2023-04-26T00:39:36;97651.34;;;3.19;100.00
30081;BME280;16902;50.816;12.828;2023-04-26T00:44:38;97649.28;;;3.32;100.00
30081;BME280;16902;50.816;12.828;2023-04-26T00:49:41;97652.00;;;3.41;100.00
30081;BME280;16902;50.816;12.828;2023-04-26T00:54:43;97653.75;;;3.40;100.00
30081;BME280;16902;50.816;12.828;2023-04-26T00:59:45;97660.38;;;3.43;100.00
30081;BME280;16902;50.816;12.828;2023-04-26T01:04:49;97656.19;;;3.42;100.00
30081;BME280;16902;50.816;12.828;2023-04-26T01:09:51;97668.00;;;3.44;100.00
30081;BME280;16902;50.816;12.828;2023-04-26T01:14:55;97666.22;;;3.35;100.00
30081;BME280;16902;50.816;12.828;2023-04-26T01:19:57;97663.50;;;3.37;100.00
30081;BME280;16902;50.816;12.828;2023-04-26T01:25:03;97672.59;;;3.21;100.00
30081;BME280;16902;50.816;12.828;2023-04-26T01:30:07;97672.34;;;3.15;100.00
30081;BME280;16902;50.816;12.828;2023-04-26T01:35:10;97674.19;;;3.03;100.00
30081;BME280;16902;50.816;12.828;2023-04-26T01:40:13;97678.66;;;2.91;100.00
30081;BME280;16902;50.816;12.828;2023-04-26T01:45:15;97669.34;;;2.90;100.00
30081;BME280;16902;50.816;12.828;2023-04-26T01:50:36;97666.03;;;2.69;100.00
30081;BME280;16902;50.816;12.828;2023-04-26T01:55:38;97672.38;;;2.65;100.00
30081;BME280;16902;50.816;12.828;2023-04-26T02:00:40;97668.69;;;2.48;100.00
30081;BME280;16902;50.816;12.828;2023-04-26T02:05:42;97669.69;;;2.26;100.00
30081;BME280;16902;50.816;12.828;2023-04-26T02:10:43;97677.69;;;2.23;100.00
30081;BME280;16902;50.816;12.828;2023-04-26T02:15:47;97676.25;;;2.40;100.00
30081;BME280;16902;50.816;12.828;2023-04-26T02:20:49;97678.19;;;2.47;100.00
30081;BME280;16902;50.816;12.828;2023-04-26T02:25:51;97676.31;;;2.59;100.00
30081;BME280;16902;50.816;12.828;2023-04-26T02:30:53;97676.72;;;2.64;100.00
30081;BME280;16902;50.816;12.828;2023-04-26T02:35:58;97679.03;;;2.67;100.00
30081;BME280;16902;50.816;12.828;2023-04-26T02:41:01;97673.34;;;2.64;100.00
30081;BME280;16902;50.816;12.828;2023-04-26T02:46:08;97666.72;;;2.61;100.00
30081;BME280;16902;50.816;12.828;2023-04-26T02:51:09;97664.16;;;2.61;100.00
30081;BME280;16902;50.816;12.828;2023-04-26T02:56:11;97677.81;;;2.62;100.00
30081;BME280;16902;50.816;12.828;2023-04-26T03:01:13;97685.38;;;2.63;100.00
30081;BME280;16902;50.816;12.828;2023-04-26T03:06:16;97674.56;;;2.79;100.00
30081;BME280;16902;50.816;12.828;2023-04-26T03:11:18;97674.47;;;2.80;100.00
30081;BME280;16902;50.816;12.828;2023-04-26T03:16:19;97668.47;;;2.70;100.00
30081;BME280;16902;50.816;12.828;2023-04-26T03:21:24;97679.66;;;2.50;100.00
30081;BME280;16902;50.816;12.828;2023-04-26T03:26:29;97676.28;;;2.49;100.00
30081;BME280;16902;50.816;12.828;2023-04-26T03:31:31;97677.50;;;2.55;100.00
30081;BME280;16902;50.816;12.828;2023-04-26T03:36:33;97678.50;;;2.23;100.00
30081;BME280;16902;50.816;12.828;2023-04-26T03:41:38;97679.97;;;1.95;100.00
30081;BME280;16902;50.816;12.828;2023-04-26T03:46:44;97686.16;;;1.93;100.00
30081;BME280;16902;50.816;12.828;2023-04-26T03:51:46;97685.19;;;1.63;100.00
30081;BME280;16902;50.816;12.828;2023-04-26T03:56:49;97695.41;;;1.74;100.00
30081;BME280;16902;50.816;12.828;2023-04-26T04:01:53;97697.31;;;2.03;100.00
30081;BME280;16902;50.816;12.828;2023-04-26T04:06:55;97691.41;;;2.12;100.00
30081;BME280;16902;50.816;12.828;2023-04-26T04:11:57;97698.44;;;2.10;100.00
30081;BME280;16902;50.816;12.828;2023-04-26T04:16:59;97696.75;;;1.99;100.00
30081;BME280;16902;50.816;12.828;2023-04-26T04:22:03;97699.56;;;1.96;100.00
30081;BME280;16902;50.816;12.828;2023-04-26T04:27:05;97707.13;;;1.98;100.00
30081;BME280;16902;50.816;12.828;2023-04-26T04:32:07;97712.78;;;1.92;100.00
30081;BME280;16902;50.816;12.828;2023-04-26T04:37:11;97708.22;;;1.95;100.00
30081;BME280;16902;50.816;12.828;2023-04-26T04:42:13;97709.47;;;2.01;100.00
30081;BME280;16902;50.816;12.828;2023-04-26T04:47:14;97721.88;;;1.96;100.00
30081;BME280;16902;50.816;12.828;2023-04-26T04:52:16;97733.44;;;2.11;100.00
30081;BME280;16902;50.816;12.828;2023-04-26T04:57:19;97737.53;;;2.14;100.00
30081;BME280;16902;50.816;12.828;2023-04-26T05:02:21;97738.38;;;2.24;100.00
30081;BME280;16902;50.816;12.828;2023-04-26T05:07:24;97745.84;;;2.37;100.00
30081;BME280;16902;50.816;12.828;2023-04-26T05:12:29;97746.75;;;2.47;100.00
30081;BME280;16902;50.816;12.828;2023-04-26T05:17:32;97745.25;;;2.54;100.00
30081;BME280;16902;50.816;12.828;2023-04-26T05:22:43;97755.72;;;2.62;100.00
30081;BME280;16902;50.816;12.828;2023-04-26T05:27:45;97757.09;;;2.66;100.00
30081;BME280;16902;50.816;12.828;2023-04-26T05:33:01;97757.94;;;2.76;100.00
30081;BME280;16902;50.816;12.828;2023-04-26T05:38:15;97768.25;;;2.86;100.00
30081;BME280;16902;50.816;12.828;2023-04-26T05:43:17;97774.63;;;2.92;100.00
30081;BME280;16902;50.816;12.828;2023-04-26T05:48:21;97778.31;;;3.08;100.00
30081;BME280;16902;50.816;12.828;2023-04-26T05:53:23;97782.25;;;3.22;100.00
30081;BME280;16902;50.816;12.828;2023-04-26T05:58:26;97786.88;;;3.38;100.00
30081;BME280;16902;50.816;12.828;2023-04-26T06:03:29;97786.88;;;3.48;100.00
30081;BME280;16902;50.816;12.828;2023-04-26T06:08:32;97788.13;;;3.53;100.00
30081;BME280;16902;50.816;12.828;2023-04-26T06:13:34;97783.66;;;3.65;100.00
30081;BME280;16902;50.816;12.828;2023-04-26T06:18:36;97785.16;;;3.77;100.00
30081;BME280;16902;50.816;12.828;2023-04-26T06:23:40;97794.22;;;3.81;100.00
30081;BME280;16902;50.816;12.828;2023-04-26T06:28:42;97788.53;;;3.68;100.00
30081;BME280;16902;50.816;12.828;2023-04-26T06:33:44;97794.22;;;3.81;100.00
30081;BME280;16902;50.816;12.828;2023-04-26T06:38:46;97798.66;;;4.28;100.00
30081;BME280;16902;50.816;12.828;2023-04-26T06:43:48;97798.03;;;4.53;100.00
30081;BME280;16902;50.816;12.828;2023-04-26T06:48:55;97794.88;;;4.97;100.00
30081;BME280;16902;50.816;12.828;2023-04-26T06:53:58;97804.06;;;4.72;100.00
30081;BME280;16902;50.816;12.828;2023-04-26T06:59:03;97809.91;;;5.29;100.00
30081;BME280;16902;50.816;12.828;2023-04-26T07:04:05;97805.00;;;5.89;100.00
30081;BME280;16902;50.816;12.828;2023-04-26T07:09:12;97808.16;;;5.65;100.00
30081;BME280;16902;50.816;12.828;2023-04-26T07:14:14;97805.25;;;5.14;100.00
30081;BME280;16902;50.816;12.828;2023-04-26T07:19:16;97810.88;;;5.46;100.00
30081;BME280;16902;50.816;12.828;2023-04-26T07:24:18;97818.38;;;5.21;100.00
30081;BME280;16902;50.816;12.828;2023-04-26T07:29:20;97810.69;;;5.75;100.00
30081;BME280;16902;50.816;12.828;2023-04-26T07:34:22;97802.59;;;6.31;100.00
30081;BME280;16902;50.816;12.828;2023-04-26T07:39:24;97812.47;;;6.10;100.00
30081;BME280;16902;50.816;12.828;2023-04-26T07:44:26;97819.97;;;5.32;100.00
30081;BME280;16902;50.816;12.828;2023-04-26T07:49:28;97819.16;;;6.38;100.00
30081;BME280;16902;50.816;12.828;2023-04-26T07:54:30;97819.03;;;5.86;100.00
30081;BME280;16902;50.816;12.828;2023-04-26T07:59:32;97820.81;;;5.86;100.00
30081;BME280;16902;50.816;12.828;2023-04-26T08:04:34;97825.50;;;6.52;100.00
30081;BME280;16902;50.816;12.828;2023-04-26T08:09:36;97829.28;;;6.32;100.00
30081;BME280;16902;50.816;12.828;2023-04-26T08:14:38;97832.03;;;5.95;100.00
30081;BME280;16902;50.816;12.828;2023-04-26T08:19:40;97833.13;;;5.74;100.00
30081;BME280;16902;50.816;12.828;2023-04-26T08:24:46;97819.03;;;6.74;100.00
30081;BME280;16902;50.816;12.828;2023-04-26T08:29:50;97821.63;;;6.74;100.00
30081;BME280;16902;50.816;12.828;2023-04-26T08:34:51;97826.66;;;7.18;100.00
30081;BME280;16902;50.816;12.828;2023-04-26T08:39:53;97822.06;;;6.69;100.00
30081;BME280;16902;50.816;12.828;2023-04-26T08:44:58;97829.09;;;6.77;100.00
30081;BME280;16902;50.816;12.828;2023-04-26T08:50:02;97836.22;;;6.31;100.00
30081;BME280;16902;50.816;12.828;2023-04-26T08:55:07;97826.91;;;6.99;100.00
30081;BME280;16902;50.816;12.828;2023-04-26T09:00:11;97835.34;;;6.75;100.00
30081;BME280;16902;50.816;12.828;2023-04-26T09:05:14;97847.28;;;6.24;100.00
30081;BME280;16902;50.816;12.828;2023-04-26T09:10:20;97841.00;;;7.04;100.00
30081;BME280;16902;50.816;12.828;2023-04-26T09:15:25;97841.56;;;7.16;100.00
30081;BME280;16902;50.816;12.828;2023-04-26T09:20:29;97834.72;;;7.73;100.00
30081;BME280;16902;50.816;12.828;2023-04-26T09:25:32;97841.06;;;7.87;100.00
30081;BME280;16902;50.816;12.828;2023-04-26T09:30:37;97837.81;;;7.69;100.00
30081;BME280;16902;50.816;12.828;2023-04-26T09:35:42;97848.34;;;7.25;100.00
30081;BME280;16902;50.816;12.828;2023-04-26T09:45:53;97838.47;;;8.12;100.00
30081;BME280;16902;50.816;12.828;2023-04-26T09:51:13;97842.50;;;7.73;100.00
30081;BME280;16902;50.816;12.828;2023-04-26T09:56:19;97831.88;;;8.17;100.00
30081;BME280;16902;50.816;12.828;2023-04-26T10:01:23;97831.66;;;8.76;100.00
30081;BME280;16902;50.816;12.828;2023-04-26T10:06:26;97847.78;;;9.11;100.00
30081;BME280;16902;50.816;12.828;2023-04-26T10:11:29;97839.66;;;8.17;100.00
30081;BME280;16902;50.816;12.828;2023-04-26T10:16:31;97837.50;;;7.96;100.00
30081;BME280;16902;50.816;12.828;2023-04-26T10:21:36;97841.34;;;7.52;100.00
30081;BME280;16902;50.816;12.828;2023-04-26T10:26:53;97835.88;;;8.12;100.00
30081;BME280;16902;50.816;12.828;2023-04-26T10:32:07;97832.38;;;9.94;100.00
30081;BME280;16902;50.816;12.828;2023-04-26T10:42:28;97829.78;;;8.37;100.00
30081;BME280;16902;50.816;12.828;2023-04-26T10:47:34;97838.97;;;8.15;100.00
30081;BME280;16902;50.816;12.828;2023-04-26T10:58:30;97836.84;;;10.23;100.00
30081;BME280;16902;50.816;12.828;2023-04-26T11:03:33;97830.84;;;8.75;100.00
30081;BME280;16902;50.816;12.828;2023-04-26T11:08:35;97840.16;;;9.71;100.00
30081;BME280;16902;50.816;12.828;2023-04-26T11:13:39;97831.84;;;9.14;100.00
30081;BME280;16902;50.816;12.828;2023-04-26T11:18:43;97828.63;;;8.32;100.00
30081;BME280;16902;50.816;12.828;2023-04-26T11:23:53;97827.94;;;9.49;100.00
30081;BME280;16902;50.816;12.828;2023-04-26T11:28:55;97825.66;;;13.04;90.93
30081;BME280;16902;50.816;12.828;2023-04-26T11:34:04;97825.78;;;13.85;88.67
30081;BME280;16902;50.816;12.828;2023-04-26T11:39:05;97821.69;;;11.96;75.62
30081;BME280;16902;50.816;12.828;2023-04-26T11:44:10;97817.75;;;9.70;91.31
30081;BME280;16902;50.816;12.828;2023-04-26T11:49:12;97815.97;;;9.40;93.51
30081;BME280;16902;50.816;12.828;2023-04-26T11:54:27;97817.97;;;9.61;91.12
30081;BME280;16902;50.816;12.828;2023-04-26T11:59:30;97826.69;;;9.06;100.00
30081;BME280;16902;50.816;12.828;2023-04-26T12:04:32;97828.56;;;8.72;100.00
30081;BME280;16902;50.816;12.828;2023-04-26T12:09:39;97833.47;;;9.15;100.00
30081;BME280;16902;50.816;12.828;2023-04-26T12:14:42;97826.56;;;10.97;100.00
30081;BME280;16902;50.816;12.828;2023-04-26T12:19:48;97823.00;;;14.67;62.05
30081;BME280;16902;50.816;12.828;2023-04-26T12:25:03;97824.75;;;15.51;55.14
30081;BME280;16902;50.816;12.828;2023-04-26T12:30:06;97822.28;;;12.76;62.44
30081;BME280;16902;50.816;12.828;2023-04-26T12:35:08;97819.91;;;11.10;71.57
30081;BME280;16902;50.816;12.828;2023-04-26T12:40:10;97818.38;;;11.66;77.01
30081;BME280;16902;50.816;12.828;2023-04-26T12:45:12;97823.75;;;11.28;70.94
30081;BME280;16902;50.816;12.828;2023-04-26T12:50:15;97819.06;;;10.35;76.09
30081;BME280;16902;50.816;12.828;2023-04-26T12:55:19;97824.78;;;9.62;79.90
30081;BME280;16902;50.816;12.828;2023-04-26T13:00:21;97825.19;;;9.73;93.89
30081;BME280;16902;50.816;12.828;2023-04-26T13:05:23;97825.63;;;10.31;81.32
30081;BME280;16902;50.816;12.828;2023-04-26T13:10:26;97828.59;;;13.23;72.23
30081;BME280;16902;50.816;12.828;2023-04-26T13:15:28;97823.09;;;16.76;43.70
30081;BME280;16902;50.816;12.828;2023-04-26T13:20:30;97826.34;;;15.07;49.11
30081;BME280;16902;50.816;12.828;2023-04-26T13:25:32;97823.59;;;13.28;56.31
30081;BME280;16902;50.816;12.828;2023-04-26T13:30:34;97827.38;;;12.84;61.92
30081;BME280;16902;50.816;12.828;2023-04-26T13:35:36;97837.47;;;13.22;55.16
30081;BME280;16902;50.816;12.828;2023-04-26T13:40:38;97827.03;;;12.94;56.13
30081;BME280;16902;50.816;12.828;2023-04-26T13:45:40;97829.78;;;12.85;58.44
30081;BME280;16902;50.816;12.828;2023-04-26T13:50:41;97841.91;;;12.37;59.06
30081;BME280;16902;50.816;12.828;2023-04-26T13:55:43;97846.41;;;12.22;61.07
30081;BME280;16902;50.816;12.828;2023-04-26T14:00:45;97845.81;;;13.10;56.67
30081;BME280;16902;50.816;12.828;2023-04-26T14:05:47;97850.97;;;15.57;44.59
30081;BME280;16902;50.816;12.828;2023-04-26T14:10:49;97850.63;;;14.49;47.09
30081;BME280;16902;50.816;12.828;2023-04-26T14:15:51;97851.78;;;12.98;56.74
30081;BME280;16902;50.816;12.828;2023-04-26T14:20:53;97844.28;;;12.60;55.66
30081;BME280;16902;50.816;12.828;2023-04-26T14:25:55;97845.38;;;13.42;52.61
30081;BME280;16902;50.816;12.828;2023-04-26T14:30:57;97851.63;;;13.41;54.03
30081;BME280;16902;50.816;12.828;2023-04-26T14:35:59;97840.94;;;14.63;49.74
30081;BME280;16902;50.816;12.828;2023-04-26T14:41:01;97838.66;;;13.80;52.77
30081;BME280;16902;50.816;12.828;2023-04-26T14:46:04;97847.16;;;14.15;49.70
30081;BME280;16902;50.816;12.828;2023-04-26T14:51:06;97841.53;;;12.96;55.02
30081;BME280;16902;50.816;12.828;2023-04-26T14:56:08;97849.00;;;11.43;61.81
30081;BME280;16902;50.816;12.828;2023-04-26T15:01:10;97854.41;;;11.12;66.46
30081;BME280;16902;50.816;12.828;2023-04-26T15:06:12;97851.28;;;13.57;51.88
30081;BME280;16902;50.816;12.828;2023-04-26T15:11:14;97850.59;;;14.23;50.05
30081;BME280;16902;50.816;12.828;2023-04-26T15:16:16;97846.91;;;13.23;52.48
30081;BME280;16902;50.816;12.828;2023-04-26T15:21:19;97842.81;;;11.29;58.45
30081;BME280;16902;50.816;12.828;2023-04-26T15:26:21;97851.41;;;10.55;68.76
30081;BME280;16902;50.816;12.828;2023-04-26T15:31:23;97847.09;;;10.48;69.60
30081;BME280;16902;50.816;12.828;2023-04-26T15:36:25;97847.03;;;11.00;78.38
30081;BME280;16902;50.816;12.828;2023-04-26T15:41:28;97850.63;;;10.70;70.99
30081;BME280;16902;50.816;12.828;2023-04-26T15:46:30;97847.28;;;10.46;70.14
30081;BME280;16902;50.816;12.828;2023-04-26T15:51:32;97847.13;;;11.07;68.97
30081;BME280;16902;50.816;12.828;2023-04-26T15:56:34;97847.19;;;11.43;63.35
30081;BME280;16902;50.816;12.828;2023-04-26T16:01:37;97851.84;;;10.44;69.88
30081;BME280;16902;50.816;12.828;2023-04-26T16:06:39;97850.03;;;9.53;71.65
30081;BME280;16902;50.816;12.828;2023-04-26T16:11:41;97846.47;;;10.00;76.41
30081;BME280;16902;50.816;12.828;2023-04-26T16:16:43;97842.13;;;10.38;70.74
30081;BME280;16902;50.816;12.828;2023-04-26T16:21:46;97846.41;;;9.85;76.83
30081;BME280;16902;50.816;12.828;2023-04-26T16:26:48;97849.97;;;9.30;77.27
30081;BME280;16902;50.816;12.828;2023-04-26T16:31:50;97847.69;;;9.27;80.47
30081;BME280;16902;50.816;12.828;2023-04-26T16:36:53;97846.44;;;8.27;96.22
30081;BME280;16902;50.816;12.828;2023-04-26T16:41:55;97842.72;;;8.54;97.84
30081;BME280;16902;50.816;12.828;2023-04-26T16:47:00;97848.00;;;8.85;90.13
30081;BME280;16902;50.816;12.828;2023-04-26T16:52:02;97847.78;;;9.02;80.83
30081;BME280;16902;50.816;12.828;2023-04-26T16:57:04;97840.09;;;8.70;85.28
30081;BME280;16902;50.816;12.828;2023-04-26T17:02:06;97831.53;;;7.96;98.93
30081;BME280;16902;50.816;12.828;2023-04-26T17:07:09;97838.66;;;8.02;91.46
30081;BME280;16902;50.816;12.828;2023-04-26T17:12:11;97843.34;;;8.15;100.00
30081;BME280;16902;50.816;12.828;2023-04-26T17:17:13;97842.22;;;8.01;100.00
30081;BME280;16902;50.816;12.828;2023-04-26T17:22:15;97852.41;;;7.86;100.00
30081;BME280;16902;50.816;12.828;2023-04-26T17:27:17;97855.97;;;7.85;100.00
30081;BME280;16902;50.816;12.828;2023-04-26T17:32:19;97852.06;;;7.65;100.00
30081;BME280;16902;50.816;12.828;2023-04-26T17:37:21;97865.09;;;7.05;100.00
30081;BME280;16902;50.816;12.828;2023-04-26T17:42:23;97866.03;;;6.95;100.00
30081;BME280;16902;50.816;12.828;2023-04-26T17:47:25;97866.59;;;6.81;100.00
30081;BME280;16902;50.816;12.828;2023-04-26T17:52:27;97871.78;;;6.55;100.00
30081;BME280;16902;50.816;12.828;2023-04-26T17:57:29;97877.22;;;6.26;100.00
30081;BME280;16902;50.816;12.828;2023-04-26T18:02:31;97888.00;;;6.22;100.00
30081;BME280;16902;50.816;12.828;2023-04-26T18:07:34;97885.72;;;6.18;100.00
30081;BME280;16902;50.816;12.828;2023-04-26T18:12:36;97883.88;;;6.29;100.00
30081;BME280;16902;50.816;12.828;2023-04-26T18:17:39;97891.47;;;6.12;100.00
30081;BME280;16902;50.816;12.828;2023-04-26T18:22:41;97897.25;;;6.06;100.00
30081;BME280;16902;50.816;12.828;2023-04-26T18:27:45;97898.69;;;5.91;100.00
30081;BME280;16902;50.816;12.828;2023-04-26T18:32:50;97902.16;;;5.82;100.00
30081;BME280;16902;50.816;12.828;2023-04-26T18:37:52;97900.88;;;5.68;100.00
30081;BME280;16902;50.816;12.828;2023-04-26T18:42:54;97908.44;;;5.52;100.00
30081;BME280;16902;50.816;12.828;2023-04-26T18:47:56;97920.13;;;5.46;100.00
30081;BME280;16902;50.816;12.828;2023-04-26T18:52:57;97920.06;;;5.38;100.00
30081;BME280;16902;50.816;12.828;2023-04-26T18:57:59;97919.13;;;5.29;100.00
30081;BME280;16902;50.816;12.828;2023-04-26T19:03:01;97922.38;;;5.31;100.00
30081;BME280;16902;50.816;12.828;2023-04-26T19:08:04;97929.66;;;5.18;100.00
30081;BME280;16902;50.816;12.828;2023-04-26T19:13:06;97929.97;;;5.05;100.00
30081;BME280;16902;50.816;12.828;2023-04-26T19:18:08;97931.94;;;4.84;100.00
30081;BME280;16902;50.816;12.828;2023-04-26T19:23:10;97939.28;;;4.59;100.00
30081;BME280;16902;50.816;12.828;2023-04-26T19:28:13;97946.50;;;4.36;100.00
30081;BME280;16902;50.816;12.828;2023-04-26T19:33:16;97941.88;;;4.21;100.00
30081;BME280;16902;50.816;12.828;2023-04-26T19:38:18;97943.75;;;4.09;100.00
30081;BME280;16902;50.816;12.828;2023-04-26T19:43:20;97942.53;;;4.03;100.00
30081;BME280;16902;50.816;12.828;2023-04-26T19:48:22;97946.31;;;3.90;100.00
30081;BME280;16902;50.816;12.828;2023-04-26T19:53:24;97947.91;;;3.81;100.00
30081;BME280;16902;50.816;12.828;2023-04-26T19:58:26;97949.41;;;3.74;100.00
30081;BME280;16902;50.816;12.828;2023-04-26T20:03:28;97947.22;;;3.69;100.00
30081;BME280;16902;50.816;12.828;2023-04-26T20:08:30;97950.81;;;3.57;100.00
30081;BME280;16902;50.816;12.828;2023-04-26T20:13:32;97954.59;;;3.53;100.00
30081;BME280;16902;50.816;12.828;2023-04-26T20:18:34;97948.22;;;3.47;100.00
30081;BME280;16902;50.816;12.828;2023-04-26T20:23:36;97946.84;;;3.43;100.00
30081;BME280;16902;50.816;12.828;2023-04-26T20:28:38;97953.34;;;3.38;100.00
30081;BME280;16902;50.816;12.828;2023-04-26T20:33:40;97946.00;;;3.33;100.00
30081;BME280;16902;50.816;12.828;2023-04-26T20:38:42;97948.84;;;3.30;100.00
30081;BME280;16902;50.816;12.828;2023-04-26T20:43:44;97950.44;;;3.21;100.00
30081;BME280;16902;50.816;12.828;2023-04-26T20:48:46;97947.03;;;3.21;100.00
30081;BME280;16902;50.816;12.828;2023-04-26T20:53:48;97942.41;;;3.15;100.00
30081;BME280;16902;50.816;12.828;2023-04-26T20:58:52;97951.06;;;3.14;100.00
30081;BME280;16902;50.816;12.828;2023-04-26T21:03:55;97957.53;;;3.08;100.00
30081;BME280;16902;50.816;12.828;2023-04-26T21:08:57;97953.59;;;3.04;100.00
30081;BME280;16902;50.816;12.828;2023-04-26T21:13:59;97950.63;;;3.08;100.00
30081;BME280;16902;50.816;12.828;2023-04-26T21:19:01;97958.78;;;3.14;100.00
30081;BME280;16902;50.816;12.828;2023-04-26T21:24:04;97956.47;;;3.11;100.00
30081;BME280;16902;50.816;12.828;2023-04-26T21:29:06;97949.28;;;3.14;100.00
30081;BME280;16902;50.816;12.828;2023-04-26T21:34:08;97956.19;;;3.14;100.00
30081;BME280;16902;50.816;12.828;2023-04-26T21:39:10;97953.56;;;3.25;100.00
30081;BME280;16902;50.816;12.828;2023-04-26T21:44:12;97955.00;;;3.18;100.00
30081;BME280;16902;50.816;12.828;2023-04-26T21:49:14;97962.47;;;3.21;100.00
30081;BME280;16902;50.816;12.828;2023-04-26T21:54:16;97964.63;;;3.16;100.00
30081;BME280;16902;50.816;12.828;2023-04-26T21:59:18;97962.44;;;3.11;100.00
30081;BME280;16902;50.816;12.828;2023-04-26T22:04:20;97966.13;;;3.18;100.00
30081;BME280;16902;50.816;12.828;2023-04-26T22:09:22;97971.69;;;3.23;100.00
30081;BME280;16902;50.816;12.828;2023-04-26T22:14:24;97969.50;;;3.19;100.00
30081;BME280;16902;50.816;12.828;2023-04-26T22:19:26;97968.81;;;3.17;100.00
30081;BME280;16902;50.816;12.828;2023-04-26T22:24:28;97974.34;;;3.12;100.00
30081;BME280;16902;50.816;12.828;2023-04-26T22:29:30;97976.53;;;3.17;100.00
30081;BME280;16902;50.816;12.828;2023-04-26T22:34:32;97977.31;;;3.07;100.00
30081;BME280;16902;50.816;12.828;2023-04-26T22:39:34;97974.41;;;2.80;100.00
30081;BME280;16902;50.816;12.828;2023-04-26T22:44:36;97974.13;;;2.73;100.00
30081;BME280;16902;50.816;12.828;2023-04-26T22:49:37;97979.75;;;2.67;100.00
30081;BME280;16902;50.816;12.828;2023-04-26T22:54:39;97982.00;;;2.61;100.00
30081;BME280;16902;50.816;12.828;2023-04-26T22:59:41;97983.00;;;2.48;100.00
30081;BME280;16902;50.816;12.828;2023-04-26T23:04:43;97981.22;;;2.28;100.00
30081;BME280;16902;50.816;12.828;2023-04-26T23:09:45;97986.28;;;2.07;100.00
30081;BME280;16902;50.816;12.828;2023-04-26T23:14:48;97991.94;;;1.90;100.00
30081;BME280;16902;50.816;12.828;2023-04-26T23:19:51;97988.91;;;1.73;100.00
30081;BME280;16902;50.816;12.828;2023-04-26T23:24:53;97993.94;;;1.75;100.00
30081;BME280;16902;50.816;12.828;2023-04-26T23:29:55;97991.94;;;1.67;100.00
30081;BME280;16902;50.816;12.828;2023-04-26T23:34:59;97987.31;;;1.61;100.00
30081;BME280;16902;50.816;12.828;2023-04-26T23:40:01;97993.47;;;1.47;100.00
30081;BME280;16902;50.816;12.828;2023-04-26T23:45:05;97996.06;;;1.36;100.00
30081;BME280;16902;50.816;12.828;2023-04-26T23:50:08;97985.06;;;1.23;100.00
30081;BME280;16902;50.816;12.828;2023-04-26T23:55:10;97982.03;;;1.07;100.00
